sensor_id;sensor_type;location;lat;lon;timestamp;P1;durP1;ratioP1;P2;durP2;ratioP2
13240;SDS011;6687;47.790;7.322;2023-11-21T06:19:57;0.30;;;0.30;;
13240;SDS011;6687;47.790;7.322;2023-11-21T06:22:25;0.22;;;0.22;;
13240;SDS011;6687;47.790;7.322;2023-11-21T06:24:52;0.30;;;0.30;;
13240;SDS011;6687;47.790;7.322;2023-11-21T06:27:19;0.28;;;0.28;;
13240;SDS011;6687;47.790;7.322;2023-11-21T06:29:45;0.45;;;0.28;;
13240;SDS011;6687;47.790;7.322;2023-11-21T06:32:12;0.55;;;0.45;;
13240;SDS011;6687;47.790;7.322;2023-11-21T06:34:41;0.40;;;0.40;;
13240;SDS011;6687;47.790;7.322;2023-11-21T06:37:09;0.30;;;0.30;;
13240;SDS011;6687;47.790;7.322;2023-11-21T06:39:37;1.45;;;1.13;;
13240;SDS011;6687;47.790;7.322;2023-11-21T06:42:03;1.10;;;1.02;;
13240;SDS011;6687;47.790;7.322;2023-11-21T06:44:30;1.23;;;1.05;;
13240;SDS011;6687;47.790;7.322;2023-11-21T06:46:58;1.73;;;1.23;;
13240;SDS011;6687;47.790;7.322;2023-11-21T06:49:25;1.05;;;1.00;;
13240;SDS011;6687;47.790;7.322;2023-11-21T06:51:52;1.00;;;1.00;;
13240;SDS011;6687;47.790;7.322;2023-11-21T06:54:21;0.98;;;0.98;;
13240;SDS011;6687;47.790;7.322;2023-11-21T06:56:48;0.80;;;0.80;;
13240;SDS011;6687;47.790;7.322;2023-11-21T06:59:15;0.55;;;0.45;;
13240;SDS011;6687;47.790;7.322;2023-11-21T07:01:41;0.85;;;0.80;;
13240;SDS011;6687;47.790;7.322;2023-11-21T07:04:08;0.70;;;0.70;;
13240;SDS011;6687;47.790;7.322;2023-11-21T07:06:35;0.63;;;0.63;;
13240;SDS011;6687;47.790;7.322;2023-11-21T07:09:03;0.77;;;0.77;;
13240;SDS011;6687;47.790;7.322;2023-11-21T07:11:31;1.02;;;1.02;;
13240;SDS011;6687;47.790;7.322;2023-11-21T07:13:57;0.65;;;0.65;;
13240;SDS011;6687;47.790;7.322;2023-11-21T07:16:24;0.65;;;0.65;;
13240;SDS011;6687;47.790;7.322;2023-11-21T07:18:51;1.05;;;0.77;;
13240;SDS011;6687;47.790;7.322;2023-11-21T07:21:20;0.70;;;0.70;;
13240;SDS011;6687;47.790;7.322;2023-11-21T07:23:46;0.68;;;0.65;;
13240;SDS011;6687;47.790;7.322;2023-11-21T07:26:13;1.00;;;0.98;;
13240;SDS011;6687;47.790;7.322;2023-11-21T07:28:41;0.60;;;0.60;;
13240;SDS011;6687;47.790;7.322;2023-11-21T07:31:07;0.60;;;0.50;;
13240;SDS011;6687;47.790;7.322;2023-11-21T07:33:34;0.43;;;0.43;;
13240;SDS011;6687;47.790;7.322;2023-11-21T07:36:01;0.45;;;0.45;;
13240;SDS011;6687;47.790;7.322;2023-11-21T07:38:27;0.70;;;0.70;;
13240;SDS011;6687;47.790;7.322;2023-11-21T07:40:54;0.40;;;0.40;;
13240;SDS011;6687;47.790;7.322;2023-11-21T07:43:21;0.70;;;0.70;;
13240;SDS011;6687;47.790;7.322;2023-11-21T07:45:49;0.30;;;0.25;;
13240;SDS011;6687;47.790;7.322;2023-11-21T07:48:16;0.50;;;0.50;;
13240;SDS011;6687;47.790;7.322;2023-11-21T07:50:43;0.20;;;0.20;;
13240;SDS011;6687;47.790;7.322;2023-11-21T07:53:11;0.20;;;0.20;;
13240;SDS011;6687;47.790;7.322;2023-11-21T07:55:38;0.28;;;0.20;;
13240;SDS011;6687;47.790;7.322;2023-11-21T07:58:05;0.10;;;0.10;;
13240;SDS011;6687;47.790;7.322;2023-11-21T08:00:31;0.45;;;0.45;;
13240;SDS011;6687;47.790;7.322;2023-11-21T08:02:59;0.10;;;0.10;;
13240;SDS011;6687;47.790;7.322;2023-11-21T08:05:26;0.38;;;0.30;;
13240;SDS011;6687;47.790;7.322;2023-11-21T08:07:53;0.10;;;0.10;;
13240;SDS011;6687;47.790;7.322;2023-11-21T08:10:19;0.60;;;0.22;;
13240;SDS011;6687;47.790;7.322;2023-11-21T08:12:47;0.10;;;0.10;;
13240;SDS011;6687;47.790;7.322;2023-11-21T08:15:16;0.20;;;0.20;;
13240;SDS011;6687;47.790;7.322;2023-11-21T08:17:43;0.22;;;0.22;;
13240;SDS011;6687;47.790;7.322;2023-11-21T08:20:11;0.20;;;0.20;;
13240;SDS011;6687;47.790;7.322;2023-11-21T08:22:41;0.20;;;0.20;;
13240;SDS011;6687;47.790;7.322;2023-11-21T08:25:08;0.35;;;0.15;;
13240;SDS011;6687;47.790;7.322;2023-11-21T08:27:35;0.20;;;0.20;;
13240;SDS011;6687;47.790;7.322;2023-11-21T08:30:02;0.20;;;0.20;;
13240;SDS011;6687;47.790;7.322;2023-11-21T08:32:29;0.30;;;0.20;;
13240;SDS011;6687;47.790;7.322;2023-11-21T08:34:57;0.43;;;0.30;;
13240;SDS011;6687;47.790;7.322;2023-11-21T08:37:25;0.40;;;0.40;;
13240;SDS011;6687;47.790;7.322;2023-11-21T08:39:57;0.20;;;0.20;;
13240;SDS011;6687;47.790;7.322;2023-11-21T08:42:24;0.22;;;0.22;;
13240;SDS011;6687;47.790;7.322;2023-11-21T08:44:54;0.30;;;0.30;;
13240;SDS011;6687;47.790;7.322;2023-11-21T08:47:22;0.15;;;0.15;;
13240;SDS011;6687;47.790;7.322;2023-11-21T08:49:51;0.08;;;0.08;;
13240;SDS011;6687;47.790;7.322;2023-11-21T08:52:18;0.25;;;0.25;;
13240;SDS011;6687;47.790;7.322;2023-11-21T08:54:47;0.10;;;0.10;;
13240;SDS011;6687;47.790;7.322;2023-11-21T08:57:14;0.17;;;0.17;;
13240;SDS011;6687;47.790;7.322;2023-11-21T08:59:40;0.10;;;0.10;;
13240;SDS011;6687;47.790;7.322;2023-11-21T09:02:07;0.30;;;0.30;;
13240;SDS011;6687;47.790;7.322;2023-11-21T09:04:34;0.30;;;0.20;;
13240;SDS011;6687;47.790;7.322;2023-11-21T09:07:00;0.20;;;0.20;;
13240;SDS011;6687;47.790;7.322;2023-11-21T09:09:27;0.50;;;0.50;;
13240;SDS011;6687;47.790;7.322;2023-11-21T09:11:56;0.10;;;0.10;;
13240;SDS011;6687;47.790;7.322;2023-11-21T09:14:22;0.57;;;0.57;;
13240;SDS011;6687;47.790;7.322;2023-11-21T09:16:49;0.35;;;0.35;;
13240;SDS011;6687;47.790;7.322;2023-11-21T09:19:16;1.25;;;0.50;;
13240;SDS011;6687;47.790;7.322;2023-11-21T09:21:42;0.35;;;0.35;;
13240;SDS011;6687;47.790;7.322;2023-11-21T09:24:09;0.38;;;0.38;;
13240;SDS011;6687;47.790;7.322;2023-11-21T09:26:36;0.38;;;0.38;;
13240;SDS011;6687;47.790;7.322;2023-11-21T09:29:04;0.20;;;0.20;;
13240;SDS011;6687;47.790;7.322;2023-11-21T09:31:31;0.10;;;0.10;;
13240;SDS011;6687;47.790;7.322;2023-11-21T09:33:58;0.90;;;0.45;;
13240;SDS011;6687;47.790;7.322;2023-11-21T09:36:25;0.08;;;0.08;;
13240;SDS011;6687;47.790;7.322;2023-11-21T09:38:55;0.10;;;0.10;;
13240;SDS011;6687;47.790;7.322;2023-11-21T09:41:23;0.10;;;0.10;;
13240;SDS011;6687;47.790;7.322;2023-11-21T09:44:00;0.10;;;0.10;;
13240;SDS011;6687;47.790;7.322;2023-11-21T09:46:32;0.10;;;0.10;;
13240;SDS011;6687;47.790;7.322;2023-11-21T09:48:59;0.20;;;0.20;;
13240;SDS011;6687;47.790;7.322;2023-11-21T09:51:30;0.30;;;0.30;;
13240;SDS011;6687;47.790;7.322;2023-11-21T09:54:01;0.10;;;0.10;;
13240;SDS011;6687;47.790;7.322;2023-11-21T09:56:34;0.10;;;0.10;;
13240;SDS011;6687;47.790;7.322;2023-11-21T09:59:01;0.20;;;0.20;;
13240;SDS011;6687;47.790;7.322;2023-11-21T10:01:33;0.10;;;0.10;;
13240;SDS011;6687;47.790;7.322;2023-11-21T10:04:02;0.40;;;0.20;;
13240;SDS011;6687;47.790;7.322;2023-11-21T10:06:31;0.13;;;0.13;;
13240;SDS011;6687;47.790;7.322;2023-11-21T10:08:59;0.10;;;0.10;;
13240;SDS011;6687;47.790;7.322;2023-11-21T10:11:26;0.00;;;0.00;;
13240;SDS011;6687;47.790;7.322;2023-11-21T10:13:55;0.35;;;0.30;;
13240;SDS011;6687;47.790;7.322;2023-11-21T10:16:24;0.10;;;0.10;;
13240;SDS011;6687;47.790;7.322;2023-11-21T10:18:54;0.22;;;0.22;;
13240;SDS011;6687;47.790;7.322;2023-11-21T10:21:22;0.00;;;0.00;;
13240;SDS011;6687;47.790;7.322;2023-11-21T10:23:49;0.13;;;0.13;;
13240;SDS011;6687;47.790;7.322;2023-11-21T10:26:18;0.00;;;0.00;;
13240;SDS011;6687;47.790;7.322;2023-11-21T10:28:54;0.52;;;0.20;;
13240;SDS011;6687;47.790;7.322;2023-11-21T10:31:22;0.20;;;0.20;;
13240;SDS011;6687;47.790;7.322;2023-11-21T10:33:49;0.10;;;0.10;;
13240;SDS011;6687;47.790;7.322;2023-11-21T10:36:23;0.00;;;0.00;;
13240;SDS011;6687;47.790;7.322;2023-11-21T10:38:51;0.10;;;0.10;;
13240;SDS011;6687;47.790;7.322;2023-11-21T10:41:19;0.10;;;0.10;;
13240;SDS011;6687;47.790;7.322;2023-11-21T10:43:46;0.15;;;0.15;;
13240;SDS011;6687;47.790;7.322;2023-11-21T10:46:13;0.30;;;0.30;;
13240;SDS011;6687;47.790;7.322;2023-11-21T10:48:41;0.10;;;0.10;;
13240;SDS011;6687;47.790;7.322;2023-11-21T10:51:08;0.20;;;0.17;;
13240;SDS011;6687;47.790;7.322;2023-11-21T10:53:39;0.45;;;0.32;;
13240;SDS011;6687;47.790;7.322;2023-11-21T10:56:07;0.20;;;0.20;;
13240;SDS011;6687;47.790;7.322;2023-11-21T10:58:36;0.10;;;0.10;;
13240;SDS011;6687;47.790;7.322;2023-11-21T11:01:05;0.22;;;0.20;;
13240;SDS011;6687;47.790;7.322;2023-11-21T11:03:33;0.20;;;0.20;;
13240;SDS011;6687;47.790;7.322;2023-11-21T11:06:02;0.30;;;0.30;;
13240;SDS011;6687;47.790;7.322;2023-11-21T11:08:32;0.15;;;0.15;;
13240;SDS011;6687;47.790;7.322;2023-11-21T11:11:02;0.10;;;0.10;;
13240;SDS011;6687;47.790;7.322;2023-11-21T11:13:30;0.10;;;0.10;;
13240;SDS011;6687;47.790;7.322;2023-11-21T11:15:58;0.30;;;0.30;;
13240;SDS011;6687;47.790;7.322;2023-11-21T11:18:26;0.45;;;0.40;;
13240;SDS011;6687;47.790;7.322;2023-11-21T11:20:54;0.73;;;0.73;;
13240;SDS011;6687;47.790;7.322;2023-11-21T11:23:32;0.43;;;0.43;;
13240;SDS011;6687;47.790;7.322;2023-11-21T11:26:16;0.38;;;0.38;;
13240;SDS011;6687;47.790;7.322;2023-11-21T11:28:55;0.57;;;0.10;;
13240;SDS011;6687;47.790;7.322;2023-11-21T11:31:33;0.47;;;0.47;;
13240;SDS011;6687;47.790;7.322;2023-11-21T11:34:08;0.40;;;0.40;;
13240;SDS011;6687;47.790;7.322;2023-11-21T11:36:47;0.50;;;0.50;;
13240;SDS011;6687;47.790;7.322;2023-11-21T11:39:26;0.45;;;0.45;;
13240;SDS011;6687;47.790;7.322;2023-11-21T11:41:55;0.17;;;0.17;;
13240;SDS011;6687;47.790;7.322;2023-11-21T11:47:25;0.35;;;0.35;;
13240;SDS011;6687;47.790;7.322;2023-11-21T11:49:58;0.35;;;0.32;;
13240;SDS011;6687;47.790;7.322;2023-11-21T11:52:35;0.20;;;0.20;;
13240;SDS011;6687;47.790;7.322;2023-11-21T11:55:05;0.35;;;0.35;;
13240;SDS011;6687;47.790;7.322;2023-11-21T11:57:36;0.75;;;0.60;;
13240;SDS011;6687;47.790;7.322;2023-11-21T12:00:08;0.22;;;0.22;;
13240;SDS011;6687;47.790;7.322;2023-11-21T12:02:41;0.30;;;0.30;;
13240;SDS011;6687;47.790;7.322;2023-11-21T12:05:10;0.15;;;0.13;;
13240;SDS011;6687;47.790;7.322;2023-11-21T12:07:45;0.20;;;0.20;;
13240;SDS011;6687;47.790;7.322;2023-11-21T12:10:13;0.45;;;0.45;;
13240;SDS011;6687;47.790;7.322;2023-11-21T12:12:47;0.32;;;0.20;;
13240;SDS011;6687;47.790;7.322;2023-11-21T12:15:15;0.10;;;0.10;;
13240;SDS011;6687;47.790;7.322;2023-11-21T12:17:42;0.20;;;0.10;;
13240;SDS011;6687;47.790;7.322;2023-11-21T12:20:10;0.20;;;0.15;;
13240;SDS011;6687;47.790;7.322;2023-11-21T12:22:42;0.20;;;0.15;;
13240;SDS011;6687;47.790;7.322;2023-11-21T12:25:09;0.15;;;0.15;;
13240;SDS011;6687;47.790;7.322;2023-11-21T12:27:41;0.45;;;0.30;;
13240;SDS011;6687;47.790;7.322;2023-11-21T12:30:11;0.10;;;0.10;;
13240;SDS011;6687;47.790;7.322;2023-11-21T12:32:40;0.35;;;0.35;;
13240;SDS011;6687;47.790;7.322;2023-11-21T12:35:08;0.65;;;0.65;;
13240;SDS011;6687;47.790;7.322;2023-11-21T12:37:36;0.47;;;0.47;;
13240;SDS011;6687;47.790;7.322;2023-11-21T12:40:04;0.15;;;0.15;;
13240;SDS011;6687;47.790;7.322;2023-11-21T12:42:33;0.10;;;0.10;;
13240;SDS011;6687;47.790;7.322;2023-11-21T12:45:18;0.20;;;0.20;;
13240;SDS011;6687;47.790;7.322;2023-11-21T12:47:46;0.20;;;0.13;;
13240;SDS011;6687;47.790;7.322;2023-11-21T12:50:14;0.10;;;0.10;;
13240;SDS011;6687;47.790;7.322;2023-11-21T12:52:41;0.13;;;0.13;;
13240;SDS011;6687;47.790;7.322;2023-11-21T12:55:13;0.73;;;0.73;;
13240;SDS011;6687;47.790;7.322;2023-11-21T12:57:41;0.30;;;0.25;;
13240;SDS011;6687;47.790;7.322;2023-11-21T13:00:11;0.47;;;0.47;;
13240;SDS011;6687;47.790;7.322;2023-11-21T13:02:51;0.40;;;0.40;;
13240;SDS011;6687;47.790;7.322;2023-11-21T13:05:25;0.20;;;0.20;;
13240;SDS011;6687;47.790;7.322;2023-11-21T13:07:53;0.05;;;0.05;;
13240;SDS011;6687;47.790;7.322;2023-11-21T13:10:22;0.10;;;0.10;;
13240;SDS011;6687;47.790;7.322;2023-11-21T13:12:51;0.30;;;0.30;;
13240;SDS011;6687;47.790;7.322;2023-11-21T13:15:21;0.73;;;0.30;;
13240;SDS011;6687;47.790;7.322;2023-11-21T13:17:48;0.47;;;0.40;;
13240;SDS011;6687;47.790;7.322;2023-11-21T13:20:16;0.40;;;0.40;;
13240;SDS011;6687;47.790;7.322;2023-11-21T13:22:48;1.10;;;0.60;;
13240;SDS011;6687;47.790;7.322;2023-11-21T13:25:19;0.60;;;0.47;;
13240;SDS011;6687;47.790;7.322;2023-11-21T13:27:45;0.50;;;0.50;;
13240;SDS011;6687;47.790;7.322;2023-11-21T13:30:13;0.47;;;0.45;;
13240;SDS011;6687;47.790;7.322;2023-11-21T13:32:43;0.20;;;0.20;;
13240;SDS011;6687;47.790;7.322;2023-11-21T13:35:11;0.40;;;0.22;;
13240;SDS011;6687;47.790;7.322;2023-11-21T13:37:46;0.38;;;0.30;;
13240;SDS011;6687;47.790;7.322;2023-11-21T13:40:16;0.15;;;0.15;;
13240;SDS011;6687;47.790;7.322;2023-11-21T13:42:47;0.28;;;0.28;;
13240;SDS011;6687;47.790;7.322;2023-11-21T13:45:18;0.30;;;0.30;;
13240;SDS011;6687;47.790;7.322;2023-11-21T13:47:47;0.20;;;0.20;;
13240;SDS011;6687;47.790;7.322;2023-11-21T13:50:16;0.10;;;0.10;;
13240;SDS011;6687;47.790;7.322;2023-11-21T13:52:47;0.30;;;0.28;;
13240;SDS011;6687;47.790;7.322;2023-11-21T13:55:14;0.20;;;0.20;;
13240;SDS011;6687;47.790;7.322;2023-11-21T13:57:41;0.30;;;0.10;;
13240;SDS011;6687;47.790;7.322;2023-11-21T14:00:10;0.15;;;0.15;;
13240;SDS011;6687;47.790;7.322;2023-11-21T14:03:00;0.20;;;0.20;;
13240;SDS011;6687;47.790;7.322;2023-11-21T14:05:31;0.20;;;0.20;;
13240;SDS011;6687;47.790;7.322;2023-11-21T14:07:59;0.38;;;0.38;;
13240;SDS011;6687;47.790;7.322;2023-11-21T14:10:29;0.17;;;0.17;;
13240;SDS011;6687;47.790;7.322;2023-11-21T14:13:02;0.32;;;0.30;;
13240;SDS011;6687;47.790;7.322;2023-11-21T14:15:30;0.32;;;0.32;;
13240;SDS011;6687;47.790;7.322;2023-11-21T14:17:59;0.45;;;0.43;;
13240;SDS011;6687;47.790;7.322;2023-11-21T14:20:30;0.25;;;0.20;;
13240;SDS011;6687;47.790;7.322;2023-11-21T14:22:58;0.20;;;0.20;;
13240;SDS011;6687;47.790;7.322;2023-11-21T14:25:25;0.30;;;0.25;;
13240;SDS011;6687;47.790;7.322;2023-11-21T14:27:52;0.32;;;0.30;;
13240;SDS011;6687;47.790;7.322;2023-11-21T14:30:18;0.20;;;0.20;;
13240;SDS011;6687;47.790;7.322;2023-11-21T14:32:47;0.30;;;0.30;;
13240;SDS011;6687;47.790;7.322;2023-11-21T14:35:16;0.68;;;0.30;;
13240;SDS011;6687;47.790;7.322;2023-11-21T14:37:43;0.30;;;0.30;;
13240;SDS011;6687;47.790;7.322;2023-11-21T14:40:10;0.38;;;0.38;;
13240;SDS011;6687;47.790;7.322;2023-11-21T14:42:40;1.20;;;0.43;;
13240;SDS011;6687;47.790;7.322;2023-11-21T14:45:08;0.40;;;0.40;;
13240;SDS011;6687;47.790;7.322;2023-11-21T14:47:38;0.20;;;0.20;;
13240;SDS011;6687;47.790;7.322;2023-11-21T14:50:09;0.50;;;0.28;;
13240;SDS011;6687;47.790;7.322;2023-11-21T14:53:06;0.50;;;0.40;;
13240;SDS011;6687;47.790;7.322;2023-11-21T14:55:33;0.20;;;0.20;;
13240;SDS011;6687;47.790;7.322;2023-11-21T14:58:13;0.98;;;0.90;;
13240;SDS011;6687;47.790;7.322;2023-11-21T15:00:43;0.47;;;0.47;;
13240;SDS011;6687;47.790;7.322;2023-11-21T15:03:10;0.75;;;0.52;;
13240;SDS011;6687;47.790;7.322;2023-11-21T15:05:56;0.77;;;0.35;;
13240;SDS011;6687;47.790;7.322;2023-11-21T15:08:24;0.13;;;0.13;;
13240;SDS011;6687;47.790;7.322;2023-11-21T15:10:56;0.45;;;0.45;;
13240;SDS011;6687;47.790;7.322;2023-11-21T15:13:22;0.35;;;0.35;;
13240;SDS011;6687;47.790;7.322;2023-11-21T15:15:50;0.38;;;0.38;;
13240;SDS011;6687;47.790;7.322;2023-11-21T15:18:19;1.05;;;0.50;;
13240;SDS011;6687;47.790;7.322;2023-11-21T15:20:46;0.40;;;0.35;;
13240;SDS011;6687;47.790;7.322;2023-11-21T15:23:12;1.05;;;0.80;;
13240;SDS011;6687;47.790;7.322;2023-11-21T15:25:43;0.47;;;0.47;;
13240;SDS011;6687;47.790;7.322;2023-11-21T15:28:11;0.40;;;0.38;;
13240;SDS011;6687;47.790;7.322;2023-11-21T15:30:38;0.20;;;0.20;;
13240;SDS011;6687;47.790;7.322;2023-11-21T15:33:04;0.13;;;0.13;;
13240;SDS011;6687;47.790;7.322;2023-11-21T15:35:33;0.40;;;0.40;;
13240;SDS011;6687;47.790;7.322;2023-11-21T15:38:02;0.65;;;0.50;;
13240;SDS011;6687;47.790;7.322;2023-11-21T15:40:29;0.30;;;0.30;;
13240;SDS011;6687;47.790;7.322;2023-11-21T15:42:58;0.50;;;0.43;;
13240;SDS011;6687;47.790;7.322;2023-11-21T15:45:24;0.50;;;0.40;;
13240;SDS011;6687;47.790;7.322;2023-11-21T15:47:51;0.40;;;0.40;;
13240;SDS011;6687;47.790;7.322;2023-11-21T15:50:18;0.43;;;0.40;;
13240;SDS011;6687;47.790;7.322;2023-11-21T15:52:45;0.22;;;0.22;;
13240;SDS011;6687;47.790;7.322;2023-11-21T15:55:12;0.40;;;0.40;;
13240;SDS011;6687;47.790;7.322;2023-11-21T15:57:39;0.10;;;0.10;;
13240;SDS011;6687;47.790;7.322;2023-11-21T16:00:07;0.30;;;0.30;;
13240;SDS011;6687;47.790;7.322;2023-11-21T16:02:41;0.40;;;0.40;;
13240;SDS011;6687;47.790;7.322;2023-11-21T16:05:08;0.43;;;0.43;;
13240;SDS011;6687;47.790;7.322;2023-11-21T16:07:38;0.30;;;0.30;;
13240;SDS011;6687;47.790;7.322;2023-11-21T16:10:06;0.30;;;0.30;;
13240;SDS011;6687;47.790;7.322;2023-11-21T16:12:35;0.10;;;0.10;;
13240;SDS011;6687;47.790;7.322;2023-11-21T16:15:02;0.10;;;0.10;;
13240;SDS011;6687;47.790;7.322;2023-11-21T16:17:34;0.20;;;0.20;;
13240;SDS011;6687;47.790;7.322;2023-11-21T16:20:02;0.25;;;0.20;;
13240;SDS011;6687;47.790;7.322;2023-11-21T16:22:31;0.15;;;0.15;;
13240;SDS011;6687;47.790;7.322;2023-11-21T16:24:58;0.38;;;0.38;;
13240;SDS011;6687;47.790;7.322;2023-11-21T16:27:26;0.30;;;0.30;;
13240;SDS011;6687;47.790;7.322;2023-11-21T16:29:53;0.28;;;0.28;;
13240;SDS011;6687;47.790;7.322;2023-11-21T16:32:19;0.20;;;0.20;;
13240;SDS011;6687;47.790;7.322;2023-11-21T16:34:48;0.38;;;0.38;;
13240;SDS011;6687;47.790;7.322;2023-11-21T16:37:15;1.17;;;0.50;;
13240;SDS011;6687;47.790;7.322;2023-11-21T16:39:42;0.63;;;0.63;;
13240;SDS011;6687;47.790;7.322;2023-11-21T16:42:09;0.30;;;0.30;;
13240;SDS011;6687;47.790;7.322;2023-11-21T16:44:36;0.90;;;0.43;;
13240;SDS011;6687;47.790;7.322;2023-11-21T16:47:02;0.52;;;0.52;;
13240;SDS011;6687;47.790;7.322;2023-11-21T16:49:30;0.60;;;0.55;;
13240;SDS011;6687;47.790;7.322;2023-11-21T16:51:59;0.45;;;0.35;;
13240;SDS011;6687;47.790;7.322;2023-11-21T16:54:26;0.57;;;0.57;;
13240;SDS011;6687;47.790;7.322;2023-11-21T16:56:53;0.55;;;0.52;;
13240;SDS011;6687;47.790;7.322;2023-11-21T16:59:20;0.35;;;0.35;;
13240;SDS011;6687;47.790;7.322;2023-11-21T17:01:46;0.68;;;0.68;;
13240;SDS011;6687;47.790;7.322;2023-11-21T17:04:13;0.63;;;0.63;;
13240;SDS011;6687;47.790;7.322;2023-11-21T17:06:42;1.10;;;0.70;;
13240;SDS011;6687;47.790;7.322;2023-11-21T17:09:10;0.47;;;0.47;;
13240;SDS011;6687;47.790;7.322;2023-11-21T17:11:39;0.50;;;0.50;;
13240;SDS011;6687;47.790;7.322;2023-11-21T17:14:06;0.70;;;0.68;;
13240;SDS011;6687;47.790;7.322;2023-11-21T17:16:33;0.80;;;0.65;;
13240;SDS011;6687;47.790;7.322;2023-11-21T17:19:00;0.80;;;0.80;;
13240;SDS011;6687;47.790;7.322;2023-11-21T17:21:28;0.60;;;0.60;;
13240;SDS011;6687;47.790;7.322;2023-11-21T17:23:55;0.50;;;0.50;;
13240;SDS011;6687;47.790;7.322;2023-11-21T17:26:23;0.65;;;0.65;;
13240;SDS011;6687;47.790;7.322;2023-11-21T17:28:50;0.45;;;0.45;;
13240;SDS011;6687;47.790;7.322;2023-11-21T17:31:17;0.60;;;0.60;;
13240;SDS011;6687;47.790;7.322;2023-11-21T17:33:44;0.32;;;0.32;;
13240;SDS011;6687;47.790;7.322;2023-11-21T17:36:11;0.43;;;0.43;;
13240;SDS011;6687;47.790;7.322;2023-11-21T17:38:39;0.55;;;0.52;;
13240;SDS011;6687;47.790;7.322;2023-11-21T17:41:06;0.47;;;0.47;;
13240;SDS011;6687;47.790;7.322;2023-11-21T17:43:34;0.28;;;0.28;;
13240;SDS011;6687;47.790;7.322;2023-11-21T17:46:05;0.28;;;0.20;;
13240;SDS011;6687;47.790;7.322;2023-11-21T17:48:32;0.38;;;0.38;;
13240;SDS011;6687;47.790;7.322;2023-11-21T17:51:01;0.30;;;0.30;;
13240;SDS011;6687;47.790;7.322;2023-11-21T17:53:29;0.20;;;0.20;;
13240;SDS011;6687;47.790;7.322;2023-11-21T17:55:55;0.60;;;0.43;;
13240;SDS011;6687;47.790;7.322;2023-11-21T17:58:22;0.28;;;0.28;;
13240;SDS011;6687;47.790;7.322;2023-11-21T18:00:50;0.38;;;0.38;;
13240;SDS011;6687;47.790;7.322;2023-11-21T18:03:17;0.35;;;0.35;;
13240;SDS011;6687;47.790;7.322;2023-11-21T18:05:44;1.02;;;0.50;;
13240;SDS011;6687;47.790;7.322;2023-11-21T18:08:11;0.65;;;0.57;;
13240;SDS011;6687;47.790;7.322;2023-11-21T18:10:38;0.75;;;0.75;;
13240;SDS011;6687;47.790;7.322;2023-11-21T18:13:05;1.13;;;0.80;;
13240;SDS011;6687;47.790;7.322;2023-11-21T18:15:32;0.77;;;0.77;;
13240;SDS011;6687;47.790;7.322;2023-11-21T18:18:00;1.13;;;1.08;;
13240;SDS011;6687;47.790;7.322;2023-11-21T18:20:26;1.10;;;1.00;;
13240;SDS011;6687;47.790;7.322;2023-11-21T18:22:53;0.75;;;0.75;;
13240;SDS011;6687;47.790;7.322;2023-11-21T18:25:20;0.80;;;0.80;;
13240;SDS011;6687;47.790;7.322;2023-11-21T18:27:46;1.45;;;1.35;;
13240;SDS011;6687;47.790;7.322;2023-11-21T18:30:13;3.03;;;1.27;;
13240;SDS011;6687;47.790;7.322;2023-11-21T18:32:40;1.33;;;1.23;;
13240;SDS011;6687;47.790;7.322;2023-11-21T18:35:08;0.98;;;0.98;;
13240;SDS011;6687;47.790;7.322;2023-11-21T18:37:35;4.57;;;1.00;;
13240;SDS011;6687;47.790;7.322;2023-11-21T18:40:02;0.70;;;0.70;;
13240;SDS011;6687;47.790;7.322;2023-11-21T18:42:30;1.42;;;1.33;;
13240;SDS011;6687;47.790;7.322;2023-11-21T18:44:56;1.05;;;0.82;;
13240;SDS011;6687;47.790;7.322;2023-11-21T18:47:23;1.05;;;1.05;;
13240;SDS011;6687;47.790;7.322;2023-11-21T18:49:50;1.63;;;0.88;;
13240;SDS011;6687;47.790;7.322;2023-11-21T18:52:18;1.15;;;0.85;;
13240;SDS011;6687;47.790;7.322;2023-11-21T18:54:45;1.63;;;1.45;;
13240;SDS011;6687;47.790;7.322;2023-11-21T18:57:13;1.73;;;1.55;;
13240;SDS011;6687;47.790;7.322;2023-11-21T18:59:40;1.55;;;1.20;;
13240;SDS011;6687;47.790;7.322;2023-11-21T19:02:08;1.65;;;1.55;;
13240;SDS011;6687;47.790;7.322;2023-11-21T19:04:38;1.23;;;1.13;;
13240;SDS011;6687;47.790;7.322;2023-11-21T19:07:05;1.13;;;1.10;;
13240;SDS011;6687;47.790;7.322;2023-11-21T19:09:33;1.52;;;1.27;;
13240;SDS011;6687;47.790;7.322;2023-11-21T19:12:02;1.52;;;1.40;;
13240;SDS011;6687;47.790;7.322;2023-11-21T19:14:30;1.40;;;1.30;;
13240;SDS011;6687;47.790;7.322;2023-11-21T19:16:57;1.92;;;1.30;;
13240;SDS011;6687;47.790;7.322;2023-11-21T19:19:23;1.00;;;1.00;;
13240;SDS011;6687;47.790;7.322;2023-11-21T19:21:50;0.68;;;0.65;;
13240;SDS011;6687;47.790;7.322;2023-11-21T19:24:17;2.47;;;1.10;;
13240;SDS011;6687;47.790;7.322;2023-11-21T19:26:45;1.33;;;1.23;;
13240;SDS011;6687;47.790;7.322;2023-11-21T19:29:12;1.00;;;1.00;;
13240;SDS011;6687;47.790;7.322;2023-11-21T19:31:39;1.98;;;1.40;;
13240;SDS011;6687;47.790;7.322;2023-11-21T19:34:05;1.52;;;1.17;;
13240;SDS011;6687;47.790;7.322;2023-11-21T19:36:32;0.80;;;0.80;;
13240;SDS011;6687;47.790;7.322;2023-11-21T19:38:59;0.70;;;0.70;;
13240;SDS011;6687;47.790;7.322;2023-11-21T19:41:26;0.55;;;0.55;;
13240;SDS011;6687;47.790;7.322;2023-11-21T19:43:56;0.57;;;0.57;;
13240;SDS011;6687;47.790;7.322;2023-11-21T19:46:23;0.30;;;0.30;;
13240;SDS011;6687;47.790;7.322;2023-11-21T19:48:50;0.52;;;0.52;;
13240;SDS011;6687;47.790;7.322;2023-11-21T19:51:17;0.65;;;0.60;;
13240;SDS011;6687;47.790;7.322;2023-11-21T19:53:44;0.52;;;0.52;;
13240;SDS011;6687;47.790;7.322;2023-11-21T19:56:12;2.40;;;1.83;;
13240;SDS011;6687;47.790;7.322;2023-11-21T19:58:39;3.03;;;1.67;;
13240;SDS011;6687;47.790;7.322;2023-11-21T20:01:08;3.55;;;2.33;;
13240;SDS011;6687;47.790;7.322;2023-11-21T20:03:36;2.92;;;1.60;;
13240;SDS011;6687;47.790;7.322;2023-11-21T20:06:03;2.72;;;1.85;;
13240;SDS011;6687;47.790;7.322;2023-11-21T20:08:31;1.40;;;1.38;;
13240;SDS011;6687;47.790;7.322;2023-11-21T20:10:59;1.45;;;1.35;;
13240;SDS011;6687;47.790;7.322;2023-11-21T20:13:26;0.77;;;0.77;;
13240;SDS011;6687;47.790;7.322;2023-11-21T20:15:53;0.85;;;0.85;;
13240;SDS011;6687;47.790;7.322;2023-11-21T20:18:21;0.80;;;0.80;;
13240;SDS011;6687;47.790;7.322;2023-11-21T20:20:48;0.65;;;0.50;;
13240;SDS011;6687;47.790;7.322;2023-11-21T20:23:15;0.40;;;0.40;;
13240;SDS011;6687;47.790;7.322;2023-11-21T20:25:44;0.65;;;0.60;;
13240;SDS011;6687;47.790;7.322;2023-11-21T20:28:11;0.60;;;0.60;;
13240;SDS011;6687;47.790;7.322;2023-11-21T20:30:38;0.52;;;0.52;;
13240;SDS011;6687;47.790;7.322;2023-11-21T20:33:04;0.50;;;0.50;;
13240;SDS011;6687;47.790;7.322;2023-11-21T20:35:33;0.60;;;0.60;;
13240;SDS011;6687;47.790;7.322;2023-11-21T20:38:01;0.60;;;0.60;;
13240;SDS011;6687;47.790;7.322;2023-11-21T20:40:28;0.40;;;0.40;;
13240;SDS011;6687;47.790;7.322;2023-11-21T20:42:55;0.45;;;0.45;;
13240;SDS011;6687;47.790;7.322;2023-11-21T20:45:27;1.10;;;0.60;;
13240;SDS011;6687;47.790;7.322;2023-11-21T20:47:55;0.25;;;0.25;;
13240;SDS011;6687;47.790;7.322;2023-11-21T20:50:21;0.77;;;0.63;;
13240;SDS011;6687;47.790;7.322;2023-11-21T20:52:50;1.08;;;0.52;;
13240;SDS011;6687;47.790;7.322;2023-11-21T20:55:18;0.75;;;0.63;;
13240;SDS011;6687;47.790;7.322;2023-11-21T20:57:45;0.47;;;0.47;;
13240;SDS011;6687;47.790;7.322;2023-11-21T21:00:12;2.13;;;0.45;;
13240;SDS011;6687;47.790;7.322;2023-11-21T21:02:40;1.85;;;0.77;;
13240;SDS011;6687;47.790;7.322;2023-11-21T21:05:10;0.60;;;0.60;;
13240;SDS011;6687;47.790;7.322;2023-11-21T21:07:39;0.70;;;0.63;;
13240;SDS011;6687;47.790;7.322;2023-11-21T21:10:09;0.70;;;0.55;;
13240;SDS011;6687;47.790;7.322;2023-11-21T21:12:36;0.77;;;0.68;;
13240;SDS011;6687;47.790;7.322;2023-11-21T21:15:04;0.90;;;0.90;;
13240;SDS011;6687;47.790;7.322;2023-11-21T21:17:31;0.32;;;0.32;;
13240;SDS011;6687;47.790;7.322;2023-11-21T21:19:58;0.73;;;0.73;;
13240;SDS011;6687;47.790;7.322;2023-11-21T21:22:25;0.45;;;0.45;;
13240;SDS011;6687;47.790;7.322;2023-11-21T21:24:52;0.50;;;0.50;;
13240;SDS011;6687;47.790;7.322;2023-11-21T21:27:22;0.57;;;0.57;;
13240;SDS011;6687;47.790;7.322;2023-11-21T21:29:48;0.40;;;0.40;;